Laporte, Minnesota
Current Conditions -  °F | °C
As of 9:35 PM on Friday 28 Nov 2014 (Local Time) from KY49 Reporting Station
Overcast Overcast  
Wind Chill:   Ceiling: 1500
Heat Index: 16°   Visibility: 10mi
Dew Point: 10°   Wind: 7mph
Humidity: 80%   Direction: 140°SE
Pressure: 29.68"   Gusts: NA
Location:  47.21°N, 94.75°W
Report Text: KY49 290335Z AUTO 14006KT 10SM OVC015 M09/M12 A2968 RMK AO2 T10911120
Loading
Personal Weather Stations






























Interactive Weather Map New forecast layout! Learn more

10-Day Weather Forecast

Advertisements
Track Severe Weather on mobile